Time;durP1;ratioP1;P1;durP2;ratioP2;P2;SDS_P1;SDS_P2;PMS_P1;PMS_P2;Temp;Humidity;BMP_temperature;BMP_pressure;BME280_temperature;BME280_humidity;BME280_pressure;Samples;Min_cycle;Max_cycle;Signal;HPM_P1;HPM_P2
2021/12/14 00:00:46;;;;;;;22.92;13.15;;;8.50;88.70;;;;;;5052131;28;20119;-67
2021/12/14 00:03:14;;;;;;;17.95;12.73;;;8.50;88.60;;;;;;5051527;28;20567;-67
2021/12/14 00:05:40;;;;;;;18.58;11.88;;;8.50;88.80;;;;;;5050901;28;20418;-67
2021/12/14 00:08:07;;;;;;;16.58;12.57;;;8.50;88.90;;;;;;5050160;28;20083;-66
2021/12/14 00:13:59;;;;;;;17.35;12.52;;;8.50;88.90;;;;;;5051524;28;20052;-67
2021/12/14 00:16:03;;;;;;;17.70;13.27;;;8.50;88.90;;;;;;5045026;28;20037;-67
2021/12/14 00:18:29;;;;;;;17.40;12.68;;;8.50;88.90;;;;;;5050879;28;20124;-67
2021/12/14 00:21:03;;;;;;;22.92;15.20;;;8.50;88.90;;;;;;5049380;28;20573;-67
2021/12/14 00:26:17;;;;;;;20.00;13.40;;;8.40;88.90;;;;;;5050964;28;20146;-67
2021/12/14 00:28:44;;;;;;;19.17;13.95;;;8.40;88.90;;;;;;5050739;28;20120;-66
2021/12/14 00:31:14;;;;;;;19.67;15.05;;;8.40;89.00;;;;;;5049356;28;20060;-67
2021/12/14 00:33:42;;;;;;;20.42;14.40;;;8.40;88.90;;;;;;5050281;28;20041;-66
2021/12/14 00:36:10;;;;;;;20.33;13.82;;;8.40;89.30;;;;;;5050625;28;20087;-67
2021/12/14 00:38:37;;;;;;;20.17;13.35;;;8.40;89.30;;;;;;5050747;28;20102;-67
2021/12/14 00:41:12;;;;;;;23.13;14.10;;;8.40;89.30;;;;;;5050157;28;20052;-67
2021/12/14 00:43:38;;;;;;;21.30;14.40;;;8.50;89.30;;;;;;5050510;28;20055;-67
2021/12/14 00:46:04;;;;;;;19.85;13.27;;;8.40;89.10;;;;;;5050684;28;20048;-67
2021/12/14 00:48:30;;;;;;;24.80;14.95;;;8.40;89.30;;;;;;5043805;28;20518;-67
2021/12/14 00:50:58;;;;;;;20.27;13.68;;;8.40;89.30;;;;;;5050807;28;20047;-67
2021/12/14 00:53:24;;;;;;;20.50;13.93;;;8.40;89.30;;;;;;5049787;28;20141;-67
2021/12/14 00:55:51;;;;;;;21.13;15.27;;;8.40;89.30;;;;;;5050115;28;20589;-66
2021/12/14 00:58:17;;;;;;;22.27;14.13;;;8.40;89.30;;;;;;5049388;28;20127;-67
2021/12/14 01:00:51;;;;;;;21.02;14.32;;;8.40;89.20;;;;;;5050397;28;20036;-67
2021/12/14 01:03:17;;;;;;;18.50;14.63;;;8.40;89.30;;;;;;5049280;28;20048;-67
2021/12/14 01:05:47;;;;;;;21.25;15.05;;;8.40;89.30;;;;;;5049304;28;20037;-67
2021/12/14 01:08:17;;;;;;;21.08;13.98;;;8.40;89.20;;;;;;5049306;28;20048;-67
2021/12/14 01:11:02;;;;;;;19.42;13.40;;;8.40;89.20;;;;;;5049894;28;20422;-67
2021/12/14 01:13:30;;;;;;;20.45;14.88;;;8.40;89.30;;;;;;5049100;28;20049;-67
2021/12/14 01:16:15;;;;;;;18.75;13.73;;;8.40;89.30;;;;;;5048165;28;20053;-67
2021/12/14 01:18:49;;;;;;;20.75;14.40;;;8.30;89.30;;;;;;5044919;28;20043;-67
2021/12/14 01:21:43;;;;;;;21.33;14.68;;;8.30;89.30;;;;;;5048532;28;20156;-67
2021/12/14 01:24:22;;;;;;;20.00;14.82;;;8.30;89.30;;;;;;5049697;28;20171;-67
2021/12/14 01:26:48;;;;;;;27.65;16.02;;;8.30;89.30;;;;;;5049646;28;20048;-67
2021/12/14 01:29:16;;;;;;;26.83;14.95;;;8.40;88.90;;;;;;5050341;28;20049;-67
2021/12/14 01:31:44;;;;;;;22.45;14.88;;;8.30;89.10;;;;;;5048361;28;20451;-67
2021/12/14 01:34:13;;;;;;;24.77;15.27;;;8.30;89.20;;;;;;5050395;28;20075;-67
2021/12/14 01:36:46;;;;;;;21.15;14.52;;;8.30;89.30;;;;;;5045254;28;20044;-67
2021/12/14 01:42:40;;;;;;;24.00;16.08;;;8.40;89.00;;;;;;5040988;28;20244;-67
2021/12/14 01:45:21;;;;;;;23.02;15.65;;;8.30;89.00;;;;;;4974422;28;20060;-67
2021/12/14 01:47:50;;;;;;;22.38;15.13;;;8.30;89.30;;;;;;5042613;28;20059;-67
2021/12/14 01:50:26;;;;;;;21.42;15.75;;;8.30;89.20;;;;;;5049624;28;20188;-67
2021/12/14 01:52:52;;;;;;;20.77;16.13;;;8.30;89.10;;;;;;5049863;28;20521;-67
2021/12/14 01:55:25;;;;;;;20.73;15.00;;;8.30;89.20;;;;;;5049479;28;20136;-67
2021/12/14 01:57:54;;;;;;;21.40;15.02;;;8.30;89.20;;;;;;5048688;28;20521;-67
2021/12/14 02:00:33;;;;;;;23.70;16.77;;;8.30;89.20;;;;;;5049887;28;20095;-67
2021/12/14 02:03:04;;;;;;;19.83;15.60;;;8.40;89.20;;;;;;5048885;28;20490;-67
2021/12/14 02:05:38;;;;;;;22.88;16.00;;;8.30;89.20;;;;;;5048568;28;20403;-67
2021/12/14 02:08:14;;;;;;;22.27;15.82;;;8.30;89.20;;;;;;5044132;28;20037;-67
2021/12/14 02:10:40;;;;;;;22.60;16.73;;;8.30;89.20;;;;;;5041965;28;20043;-67
2021/12/14 02:13:06;;;;;;;23.58;16.33;;;8.30;89.20;;;;;;5047531;28;20139;-67
2021/12/14 02:15:39;;;;;;;23.30;15.85;;;8.30;89.10;;;;;;5047140;28;20041;-67
2021/12/14 02:18:14;;;;;;;22.20;16.00;;;8.30;89.40;;;;;;5045727;28;20041;-67
2021/12/14 02:20:54;;;;;;;24.15;16.77;;;8.30;89.40;;;;;;5049082;28;20049;-67
2021/12/14 02:23:21;;;;;;;24.48;16.75;;;8.40;89.30;;;;;;5047555;28;20924;-68
2021/12/14 02:25:48;;;;;;;27.90;16.77;;;8.30;89.40;;;;;;5048062;28;20044;-68
2021/12/14 02:28:17;;;;;;;29.42;18.23;;;8.30;89.40;;;;;;5044537;28;20041;-67
2021/12/14 02:30:46;;;;;;;23.17;16.75;;;8.30;89.20;;;;;;5048513;28;20076;-67
2021/12/14 02:33:23;;;;;;;24.67;15.98;;;8.30;89.30;;;;;;5048532;28;20095;-67
2021/12/14 02:35:50;;;;;;;22.52;17.13;;;8.40;89.30;;;;;;5048062;28;20052;-67
2021/12/14 02:38:17;;;;;;;24.98;17.48;;;8.30;89.30;;;;;;5046080;28;20044;-67
2021/12/14 02:41:01;;;;;;;24.63;16.90;;;8.30;89.40;;;;;;5048964;28;20124;-68
2021/12/14 02:43:47;;;;;;;24.35;16.77;;;8.30;89.40;;;;;;5048099;28;20497;-67
2021/12/14 02:46:35;;;;;;;26.08;18.10;;;8.40;89.30;;;;;;5030662;28;20059;-67
2021/12/14 02:49:06;;;;;;;28.42;18.42;;;8.40;89.40;;;;;;5048552;28;20071;-67
2021/12/14 02:51:36;;;;;;;24.50;17.85;;;8.30;89.40;;;;;;5048465;28;20044;-67
2021/12/14 02:54:12;;;;;;;24.55;16.80;;;8.30;89.50;;;;;;5049075;28;20041;-67
2021/12/14 02:56:40;;;;;;;24.77;17.30;;;8.30;89.50;;;;;;5048985;28;20052;-67
2021/12/14 02:59:11;;;;;;;26.85;17.73;;;8.30;89.60;;;;;;5047989;28;20071;-67
2021/12/14 03:01:39;;;;;;;25.37;19.10;;;8.30;89.60;;;;;;5047804;28;20139;-67
2021/12/14 03:04:07;;;;;;;26.10;17.98;;;8.30;89.70;;;;;;5049065;28;20103;-67
2021/12/14 03:06:45;;;;;;;27.75;18.83;;;8.30;89.60;;;;;;5048329;28;20063;-67
2021/12/14 03:09:32;;;;;;;28.00;18.48;;;8.30;89.70;;;;;;5046462;28;20409;-67
2021/12/14 03:12:02;;;;;;;24.58;17.42;;;8.20;89.80;;;;;;5044245;28;20044;-67
2021/12/14 03:14:28;;;;;;;26.77;18.75;;;8.30;89.90;;;;;;5048543;28;20037;-67
2021/12/14 03:16:53;;;;;;;31.65;19.17;;;8.30;89.80;;;;;;5048237;28;20155;-67
2021/12/14 03:19:19;;;;;;;27.58;20.02;;;8.20;90.00;;;;;;5046945;28;20040;-67
2021/12/14 03:21:46;;;;;;;24.65;18.33;;;8.20;90.00;;;;;;5047286;28;20107;-67
2021/12/14 03:24:14;;;;;;;26.50;18.25;;;8.20;90.00;;;;;;5048322;28;20087;-67
2021/12/14 03:26:45;;;;;;;26.33;19.52;;;8.20;90.00;;;;;;5048801;28;20045;-67
2021/12/14 03:29:16;;;;;;;25.02;18.20;;;8.20;90.00;;;;;;5046642;28;20543;-67
2021/12/14 03:31:45;;;;;;;28.23;19.15;;;8.10;90.10;;;;;;5047575;28;20079;-67
2021/12/14 03:34:28;;;;;;;25.67;18.67;;;8.10;90.10;;;;;;5048413;28;20068;-67
2021/12/14 03:37:01;;;;;;;29.80;19.67;;;8.10;90.00;;;;;;5041810;28;20045;-67
2021/12/14 03:39:30;;;;;;;25.00;18.83;;;8.10;90.20;;;;;;5046210;28;20494;-66
2021/12/14 03:42:19;;;;;;;26.40;19.25;;;8.10;90.20;;;;;;5046824;28;20099;-67
2021/12/14 03:44:52;;;;;;;33.45;20.40;;;8.00;90.40;;;;;;5033012;28;20506;-67
2021/12/14 03:47:29;;;;;;;29.15;19.15;;;8.10;90.30;;;;;;5048348;28;20124;-67
2021/12/14 03:49:58;;;;;;;30.35;20.10;;;8.10;90.50;;;;;;5046371;28;20053;-67
2021/12/14 03:52:28;;;;;;;28.23;19.23;;;8.10;90.60;;;;;;5047765;28;20129;-67
2021/12/14 03:54:54;;;;;;;31.35;21.13;;;8.10;90.40;;;;;;5047839;28;20044;-67
2021/12/14 03:57:20;;;;;;;25.92;18.95;;;8.10;90.50;;;;;;5052131;28;20048;-67
2021/12/14 03:59:46;;;;;;;30.02;19.42;;;8.20;90.40;;;;;;5051028;28;20910;-67
2021/12/14 04:02:16;;;;;;;26.30;19.05;;;8.20;90.50;;;;;;5051358;28;20049;-67
2021/12/14 04:04:57;;;;;;;31.35;18.63;;;8.20;90.50;;;;;;5050992;28;20041;-67
2021/12/14 04:07:23;;;;;;;31.88;19.65;;;8.30;90.50;;;;;;5050976;28;20442;-67
2021/12/14 04:09:49;;;;;;;29.23;20.38;;;8.20;90.40;;;;;;5050336;28;20143;-67
2021/12/14 04:12:18;;;;;;;30.85;21.38;;;8.30;90.30;;;;;;5051123;28;20120;-67
2021/12/14 04:14:48;;;;;;;28.88;21.05;;;8.30;90.30;;;;;;5049015;28;20076;-67
2021/12/14 04:17:15;;;;;;;28.33;19.50;;;8.30;90.50;;;;;;5051268;28;20072;-67
2021/12/14 04:19:41;;;;;;;35.63;21.17;;;8.20;90.40;;;;;;5051121;28;20036;-67
2021/12/14 04:22:17;;;;;;;32.67;19.35;;;8.20;90.50;;;;;;5050885;28;20468;-67
2021/12/14 04:24:46;;;;;;;28.25;18.88;;;8.20;90.50;;;;;;5036405;28;20048;-67
2021/12/14 04:27:16;;;;;;;31.55;19.75;;;8.30;90.50;;;;;;5031787;28;20485;-67
2021/12/14 04:29:43;;;;;;;26.65;19.63;;;8.30;90.40;;;;;;5048417;28;20517;-67
2021/12/14 04:32:12;;;;;;;30.15;20.65;;;8.20;90.60;;;;;;5049374;28;20049;-67
2021/12/14 04:34:39;;;;;;;30.63;19.70;;;8.20;90.60;;;;;;5050798;28;20095;-67
2021/12/14 04:37:06;;;;;;;26.45;19.52;;;8.20;90.70;;;;;;5051426;28;20041;-67
2021/12/14 04:39:40;;;;;;;29.08;20.50;;;8.20;90.70;;;;;;5050425;28;20140;-67
2021/12/14 04:53:39;;;;;;;27.42;19.90;;;8.20;91.00;;;;;;5047114;28;20049;-67
2021/12/14 04:56:10;;;;;;;32.42;21.15;;;8.20;91.10;;;;;;5031857;28;20111;-67
2021/12/14 04:58:42;;;;;;;27.98;20.52;;;8.20;91.30;;;;;;5045351;28;20045;-67
2021/12/14 05:01:09;;;;;;;32.55;20.20;;;8.30;91.10;;;;;;5049225;28;20532;-67
2021/12/14 05:03:55;;;;;;;30.98;20.27;;;8.20;91.10;;;;;;5049124;28;20512;-68
2021/12/14 05:06:24;;;;;;;27.00;19.90;;;8.30;91.20;;;;;;5049816;28;20045;-67
2021/12/14 05:09:24;;;;;;;28.90;20.77;;;8.20;91.20;;;;;;5050060;28;20047;-67
2021/12/14 05:11:53;;;;;;;31.33;22.38;;;8.30;91.20;;;;;;5048056;28;20452;-67
2021/12/14 05:14:19;;;;;;;30.27;19.70;;;8.20;91.20;;;;;;5049403;28;20052;-67
2021/12/14 05:16:46;;;;;;;31.30;21.90;;;8.20;91.10;;;;;;5050338;28;20037;-67
2021/12/14 05:19:13;;;;;;;30.95;20.52;;;8.10;91.30;;;;;;5050302;28;20045;-68
2021/12/14 05:21:46;;;;;;;29.38;22.95;;;8.10;91.30;;;;;;5049521;28;20033;-67
2021/12/14 05:24:16;;;;;;;28.02;20.67;;;8.20;91.20;;;;;;5048798;28;20079;-67
2021/12/14 05:26:43;;;;;;;31.92;20.45;;;8.20;91.20;;;;;;5050150;28;20858;-67
2021/12/14 05:29:10;;;;;;;34.40;22.77;;;8.20;91.30;;;;;;5049457;28;20043;-67
2021/12/14 05:31:46;;;;;;;30.52;22.67;;;8.10;91.50;;;;;;5049092;28;20056;-67
2021/12/14 05:34:12;;;;;;;30.70;21.40;;;8.20;91.50;;;;;;5048382;28;20048;-67
2021/12/14 05:36:43;;;;;;;31.70;22.40;;;8.20;91.60;;;;;;5050098;28;20044;-67
2021/12/14 05:44:37;;;;;;;34.90;21.50;;;8.10;92.00;;;;;;5049383;28;20498;-67
2021/12/14 05:47:10;;;;;;;32.17;23.55;;;8.10;92.00;;;;;;5049831;28;20080;-67
2021/12/14 05:49:37;;;;;;;32.97;23.17;;;8.10;91.90;;;;;;5043314;28;20037;-67
2021/12/14 05:52:08;;;;;;;33.58;22.98;;;8.10;92.00;;;;;;5049592;28;20041;-67
2021/12/14 05:54:35;;;;;;;33.20;24.53;;;8.10;92.10;;;;;;5048371;28;20091;-67
2021/12/14 05:57:04;;;;;;;34.42;23.98;;;8.10;92.10;;;;;;5049623;28;20052;-67
2021/12/14 05:59:33;;;;;;;37.67;24.85;;;8.10;92.20;;;;;;5049041;28;20072;-67
2021/12/14 06:02:01;;;;;;;33.65;24.90;;;8.10;92.20;;;;;;5048980;28;20045;-67
2021/12/14 06:04:35;;;;;;;33.05;23.65;;;8.00;92.50;;;;;;5048855;28;20053;-67
2021/12/14 06:07:01;;;;;;;37.97;25.65;;;8.00;92.60;;;;;;5046205;28;20410;-67
2021/12/14 06:09:30;;;;;;;34.60;24.10;;;8.00;92.50;;;;;;5042783;28;20048;-67
2021/12/14 06:12:00;;;;;;;35.65;26.63;;;8.00;92.40;;;;;;5047562;28;20056;-67
2021/12/14 06:14:28;;;;;;;38.28;26.17;;;8.00;92.60;;;;;;5032976;28;20038;-66
2021/12/14 06:17:05;;;;;;;40.17;25.88;;;8.00;92.50;;;;;;5036761;28;20102;-67
2021/12/14 06:19:48;;;;;;;42.42;27.23;;;8.00;92.50;;;;;;5048305;28;20106;-66
2021/12/14 06:22:17;;;;;;;41.90;26.13;;;8.00;92.50;;;;;;5045438;28;20037;-66
2021/12/14 06:24:46;;;;;;;33.42;24.73;;;8.00;92.80;;;;;;5048661;28;20127;-67
2021/12/14 06:27:15;;;;;;;41.60;26.90;;;8.00;92.70;;;;;;5048954;28;20417;-67
2021/12/14 06:29:51;;;;;;;40.30;27.35;;;8.00;92.80;;;;;;5048486;28;20382;-68
2021/12/14 06:32:24;;;;;;;39.20;27.73;;;8.00;92.90;;;;;;5031300;28;20049;-68
2021/12/14 06:34:53;;;;;;;37.38;26.73;;;8.00;92.80;;;;;;5028843;28;20048;-67
2021/12/14 06:37:41;;;;;;;39.25;25.67;;;8.00;92.70;;;;;;5031036;28;20124;-67
2021/12/14 06:40:22;;;;;;;41.08;27.65;;;8.00;92.70;;;;;;5048878;28;20056;-67
2021/12/14 06:42:58;;;;;;;38.05;26.85;;;8.00;92.60;;;;;;5049195;28;20044;-67
2021/12/14 06:45:34;;;;;;;39.40;26.17;;;8.10;92.60;;;;;;5047183;28;20120;-67
2021/12/14 06:48:27;;;;;;;41.28;27.23;;;8.10;92.60;;;;;;5047300;28;20138;-67
2021/12/14 06:51:18;;;;;;;39.80;27.25;;;8.10;92.50;;;;;;5047860;28;20044;-67
2021/12/14 06:53:49;;;;;;;43.63;27.80;;;8.10;92.50;;;;;;5048297;28;20029;-67
2021/12/14 06:56:15;;;;;;;40.33;28.63;;;8.10;92.60;;;;;;5040274;28;20254;-67
2021/12/14 06:59:04;;;;;;;38.28;27.60;;;8.10;92.60;;;;;;5047517;28;20048;-67
2021/12/14 07:01:41;;;;;;;40.33;27.65;;;8.10;92.60;;;;;;5047196;28;20049;-67
2021/12/14 07:04:12;;;;;;;37.85;28.30;;;8.10;92.70;;;;;;5039842;28;20048;-67
2021/12/14 07:06:44;;;;;;;42.73;28.43;;;8.10;92.70;;;;;;5028344;28;20210;-67
2021/12/14 07:09:21;;;;;;;43.15;28.77;;;8.10;92.60;;;;;;5037188;28;20045;-67
2021/12/14 07:12:03;;;;;;;44.40;28.50;;;8.10;92.70;;;;;;5045643;28;20051;-67
2021/12/14 07:14:43;;;;;;;39.97;27.42;;;8.10;92.80;;;;;;5046531;28;20041;-67
2021/12/14 07:17:08;;;;;;;44.50;28.42;;;8.10;92.80;;;;;;5034390;28;20072;-67
2021/12/14 07:19:52;;;;;;;39.97;28.70;;;8.00;92.70;;;;;;5048433;28;20485;-66
2021/12/14 07:22:30;;;;;;;35.15;21.63;;;8.10;92.80;;;;;;5040326;28;20049;-63
2021/12/14 07:25:01;;;;;;;39.65;26.88;;;8.20;93.20;;;;;;5046474;28;20053;-67
2021/12/14 07:27:39;;;;;;;41.55;28.50;;;8.60;93.30;;;;;;5046921;28;20094;-67
2021/12/14 07:30:18;;;;;;;37.78;28.50;;;8.60;92.90;;;;;;5049511;28;20352;-67
2021/12/14 07:32:43;;;;;;;44.08;28.40;;;8.60;92.70;;;;;;5049956;28;20481;-67
2021/12/14 07:35:16;;;;;;;37.20;24.58;;;8.50;92.40;;;;;;5050971;28;20051;-66
2021/12/14 07:37:43;;;;;;;38.88;26.83;;;8.50;92.40;;;;;;5049899;28;20037;-67
2021/12/14 07:40:10;;;;;;;42.75;28.13;;;8.40;92.30;;;;;;5050894;28;20060;-66
2021/12/14 07:42:36;;;;;;;37.97;26.08;;;8.40;92.30;;;;;;5049721;28;20036;-66
2021/12/14 07:45:02;;;;;;;44.67;27.92;;;8.40;92.30;;;;;;5046098;28;20037;-66
2021/12/14 07:47:28;;;;;;;34.50;26.45;;;8.40;92.20;;;;;;5047017;28;20040;-67
2021/12/14 07:49:56;;;;;;;37.88;28.15;;;8.40;92.20;;;;;;5048918;28;20060;-66
2021/12/14 07:52:24;;;;;;;42.28;28.30;;;8.40;92.20;;;;;;5050930;28;20049;-67
2021/12/14 07:54:58;;;;;;;39.80;27.63;;;8.40;92.20;;;;;;5050088;28;20374;-66
2021/12/14 07:57:24;;;;;;;45.88;28.92;;;8.30;92.40;;;;;;5052434;28;20128;-66
2021/12/14 07:59:52;;;;;;;39.78;27.33;;;8.30;92.30;;;;;;5050730;28;20465;-66
2021/12/14 08:02:27;;;;;;;40.88;27.80;;;8.30;92.40;;;;;;5048553;28;20052;-67
2021/12/14 08:04:59;;;;;;;39.10;27.35;;;8.30;92.50;;;;;;5052179;28;20352;-66
2021/12/14 08:07:32;;;;;;;44.80;28.02;;;8.30;92.50;;;;;;5051727;28;20463;-66
2021/12/14 08:10:15;;;;;;;39.80;27.35;;;8.30;92.40;;;;;;5048780;28;20045;-67
2021/12/14 08:12:46;;;;;;;40.13;27.63;;;8.30;92.60;;;;;;5044485;28;20059;-66
2021/12/14 08:15:41;;;;;;;48.03;29.90;;;8.30;92.50;;;;;;5050126;28;20044;-66
2021/12/14 08:18:11;;;;;;;40.42;26.80;;;8.30;92.70;;;;;;5048489;28;20033;-66
2021/12/14 08:20:52;;;;;;;47.35;30.60;;;8.30;92.70;;;;;;5050218;28;20102;-66
2021/12/14 08:23:20;;;;;;;45.47;27.92;;;8.30;92.60;;;;;;5049784;28;20052;-65
2021/12/14 08:25:45;;;;;;;39.80;26.33;;;8.20;92.50;;;;;;5048842;28;20055;-65
2021/12/14 08:28:12;;;;;;;44.80;28.67;;;8.30;92.70;;;;;;5047310;28;20041;-64
2021/12/14 08:30:41;;;;;;;44.38;29.27;;;8.30;92.60;;;;;;5046606;28;20465;-66
2021/12/14 08:33:19;;;;;;;39.13;28.05;;;8.30;92.80;;;;;;5036965;28;20450;-65
2021/12/14 08:35:44;;;;;;;40.15;27.73;;;8.30;92.80;;;;;;5046925;28;20072;-65
2021/12/14 08:38:13;;;;;;;46.72;28.48;;;8.30;92.80;;;;;;5048048;28;20088;-65
2021/12/14 08:40:45;;;;;;;48.45;28.48;;;8.40;92.70;;;;;;5048585;28;20110;-66
2021/12/14 08:43:20;;;;;;;42.03;28.23;;;8.40;92.60;;;;;;5047342;28;20509;-66
2021/12/14 08:45:55;;;;;;;49.70;29.42;;;8.40;92.70;;;;;;5046916;28;20060;-65
2021/12/14 08:48:25;;;;;;;42.55;28.92;;;8.40;92.70;;;;;;5047502;28;20486;-66
2021/12/14 08:50:54;;;;;;;45.90;29.73;;;8.40;92.60;;;;;;5046455;28;20086;-65
2021/12/14 08:53:22;;;;;;;44.33;29.00;;;8.30;92.50;;;;;;5050129;28;20052;-65
2021/12/14 08:55:51;;;;;;;40.38;28.50;;;8.30;92.60;;;;;;5049749;28;20049;-66
2021/12/14 08:58:18;;;;;;;43.72;27.70;;;8.30;92.60;;;;;;5050523;28;20474;-66
2021/12/14 09:00:49;;;;;;;40.88;29.45;;;8.30;92.60;;;;;;5038932;28;20120;-65
2021/12/14 09:03:24;;;;;;;45.03;29.05;;;8.30;92.60;;;;;;5049449;28;20049;-66
2021/12/14 09:05:52;;;;;;;39.53;27.85;;;8.30;92.70;;;;;;5049612;28;20048;-66
2021/12/14 09:08:20;;;;;;;41.97;29.10;;;8.20;92.70;;;;;;5048478;28;20344;-66
2021/12/14 09:10:52;;;;;;;39.38;28.35;;;8.20;92.70;;;;;;5039303;28;20080;-66
2021/12/14 09:13:18;;;;;;;43.92;28.70;;;8.20;92.90;;;;;;5030210;28;20041;-66
2021/12/14 09:15:55;;;;;;;45.70;29.00;;;8.20;92.90;;;;;;5046534;28;20048;-66
2021/12/14 09:18:23;;;;;;;42.95;26.98;;;8.20;92.90;;;;;;5043000;28;20049;-65
2021/12/14 09:21:03;;;;;;;43.10;29.10;;;8.20;92.90;;;;;;5050819;28;20111;-66
2021/12/14 09:23:35;;;;;;;50.72;28.85;;;8.20;92.90;;;;;;5047818;28;20514;-66
2021/12/14 09:26:03;;;;;;;42.85;28.77;;;8.10;92.80;;;;;;5037739;28;20045;-65
2021/12/14 09:28:30;;;;;;;44.13;29.15;;;8.20;93.10;;;;;;5047015;28;20128;-66
2021/12/14 09:30:59;;;;;;;49.10;29.55;;;8.20;93.10;;;;;;5046053;28;20509;-66
2021/12/14 09:33:26;;;;;;;54.75;29.50;;;8.20;93.10;;;;;;5046478;28;20481;-65
2021/12/14 09:35:55;;;;;;;45.92;29.55;;;8.20;93.30;;;;;;5046620;28;20049;-66
2021/12/14 09:38:30;;;;;;;50.20;29.73;;;8.20;93.40;;;;;;5049567;28;20084;-66
2021/12/14 09:40:57;;;;;;;52.80;31.73;;;8.20;93.30;;;;;;5048567;28;20049;-66
2021/12/14 09:43:24;;;;;;;54.30;29.30;;;8.20;93.20;;;;;;5046218;28;20045;-66
2021/12/14 09:45:54;;;;;;;48.40;30.52;;;8.20;93.20;;;;;;5047687;28;20056;-66
2021/12/14 09:48:27;;;;;;;48.65;29.92;;;8.20;93.20;;;;;;5045689;28;20053;-65
2021/12/14 09:50:55;;;;;;;46.67;27.90;;;8.20;93.20;;;;;;5047391;28;20184;-66
2021/12/14 09:53:27;;;;;;;44.05;28.48;;;8.30;93.30;;;;;;5047257;28;20045;-66
2021/12/14 09:55:54;;;;;;;;;;;8.30;93.20;;;;;;5047551;28;20037;-66
2021/12/14 09:58:29;;;;;;;41.92;27.70;;;8.20;93.20;;;;;;5048504;28;19927;-66
2021/12/14 10:01:03;;;;;;;47.05;27.27;;;8.20;93.40;;;;;;5045639;28;20091;-66
2021/12/14 10:03:29;;;;;;;42.88;27.23;;;8.30;93.30;;;;;;5047529;28;20124;-66
2021/12/14 10:06:03;;;;;;;41.97;28.27;;;8.30;93.30;;;;;;5047583;28;20128;-66
2021/12/14 10:08:34;;;;;;;48.53;27.38;;;8.30;93.30;;;;;;5048025;28;20053;-66
2021/12/14 10:11:12;;;;;;;47.37;27.57;;;8.30;93.20;;;;;;5034445;28;20478;-65
2021/12/14 10:13:43;;;;;;;44.08;25.25;;;8.30;93.20;;;;;;5047750;28;20291;-66
2021/12/14 10:16:10;;;;;;;45.20;27.55;;;8.30;93.50;;;;;;5047558;28;20044;-65
2021/12/14 10:18:45;;;;;;;40.88;24.92;;;8.30;93.60;;;;;;5047697;28;20482;-66
2021/12/14 10:21:27;;;;;;;43.90;26.50;;;8.40;93.50;;;;;;5045834;28;20106;-66
2021/12/14 10:23:54;;;;;;;38.30;24.17;;;8.40;93.50;;;;;;5045631;28;20055;-66
2021/12/14 10:26:24;;;;;;;43.50;24.40;;;8.40;93.40;;;;;;5047039;28;20171;-66
2021/12/14 10:28:54;;;;;;;40.65;24.83;;;8.30;93.70;;;;;;5045191;28;20041;-66
2021/12/14 10:31:31;;;;;;;39.60;24.40;;;8.40;93.70;;;;;;5046028;28;20056;-66
2021/12/14 10:34:00;;;;;;;40.53;24.90;;;8.40;93.80;;;;;;5045715;28;20043;-66
2021/12/14 10:36:34;;;;;;;41.30;24.05;;;8.40;93.80;;;;;;5046874;28;20489;-66
2021/12/14 10:44:17;;;;;;;42.10;24.80;;;8.50;93.80;;;;;;5044465;28;20060;-66
2021/12/14 10:46:48;;;;;;;38.88;22.00;;;8.50;93.90;;;;;;5044800;28;20559;-65
2021/12/14 10:49:17;;;;;;;39.90;22.73;;;8.60;94.00;;;;;;5047744;28;20076;-66
2021/12/14 10:51:57;;;;;;;38.08;22.17;;;8.60;93.90;;;;;;5048000;28;20493;-66
2021/12/14 10:54:27;;;;;;;37.65;22.70;;;8.60;94.00;;;;;;5046640;28;20056;-66
2021/12/14 10:57:05;;;;;;;35.15;20.48;;;8.50;94.10;;;;;;5029113;28;20132;-66
2021/12/14 10:59:35;;;;;;;41.78;21.83;;;8.50;94.10;;;;;;5038640;28;20086;-66
2021/12/14 11:02:01;;;;;;;31.42;21.45;;;8.50;94.20;;;;;;5046731;28;20041;-65
2021/12/14 11:04:40;;;;;;;33.85;21.50;;;8.60;94.20;;;;;;5045444;28;20052;-65
2021/12/14 11:07:14;;;;;;;36.05;21.20;;;8.60;94.10;;;;;;5047806;28;20044;-66
2021/12/14 11:09:42;;;;;;;32.50;20.10;;;8.60;94.10;;;;;;5044962;28;20117;-66
2021/12/14 11:12:16;;;;;;;34.92;21.33;;;8.60;94.00;;;;;;5044839;28;20044;-66
2021/12/14 11:14:42;;;;;;;35.67;20.98;;;8.60;93.90;;;;;;5045364;28;20041;-66
2021/12/14 11:20:11;;;;;;;30.27;20.10;;;8.70;93.90;;;;;;5044474;28;20045;-66
2021/12/14 11:22:59;;;;;;;36.05;20.98;;;8.80;93.90;;;;;;5044227;28;20402;-66
2021/12/14 11:25:27;;;;;;;35.63;21.05;;;8.70;93.80;;;;;;5042920;28;20033;-66
2021/12/14 11:28:06;;;;;;;33.03;19.23;;;8.70;93.90;;;;;;5043015;28;20080;-66
2021/12/14 11:30:38;;;;;;;37.47;21.02;;;8.70;93.80;;;;;;5047428;28;20049;-66
2021/12/14 11:33:06;;;;;;;33.45;21.77;;;8.70;93.90;;;;;;5047162;28;20506;-66
2021/12/14 11:35:37;;;;;;;40.33;23.52;;;8.70;93.80;;;;;;5048110;28;20075;-66
2021/12/14 11:38:11;;;;;;;36.63;20.05;;;8.60;93.80;;;;;;5045245;28;20040;-66
2021/12/14 11:40:37;;;;;;;36.67;20.48;;;8.60;94.00;;;;;;5038436;28;20049;-66
2021/12/14 11:43:19;;;;;;;35.10;19.90;;;8.60;93.90;;;;;;5047301;28;20489;-65
2021/12/14 11:45:48;;;;;;;33.33;19.63;;;8.60;94.00;;;;;;5031317;28;20041;-66
2021/12/14 11:48:27;;;;;;;33.30;19.55;;;8.60;94.00;;;;;;5047267;28;20040;-67
2021/12/14 11:50:55;;;;;;;30.00;17.40;;;8.70;94.10;;;;;;5045393;28;20037;-67
2021/12/14 11:53:22;;;;;;;29.90;18.67;;;8.70;94.10;;;;;;5046467;28;20041;-67
2021/12/14 11:55:53;;;;;;;25.85;17.15;;;8.70;94.20;;;;;;5046582;28;20045;-67
2021/12/14 11:58:38;;;;;;;29.70;17.00;;;8.70;94.20;;;;;;5046804;28;20045;-67
2021/12/14 12:01:25;;;;;;;25.13;16.52;;;8.80;94.20;;;;;;5044450;28;20099;-66
2021/12/14 12:04:04;;;;;;;26.38;17.02;;;8.80;94.20;;;;;;5045919;28;20048;-66
2021/12/14 12:09:31;;;;;;;31.58;18.67;;;8.90;94.30;;;;;;5047416;28;20057;-66
2021/12/14 12:12:03;;;;;;;31.75;19.38;;;8.90;94.20;;;;;;5046507;28;20037;-66
2021/12/14 12:14:43;;;;;;;41.35;21.17;;;8.90;94.30;;;;;;5046515;28;20401;-66
2021/12/14 12:17:24;;;;;;;36.05;19.15;;;8.90;94.30;;;;;;5047422;28;20409;-66
2021/12/14 12:19:54;;;;;;;33.42;19.17;;;9.00;94.30;;;;;;5051018;28;20087;-66
2021/12/14 12:22:20;;;;;;;30.30;18.88;;;9.00;94.30;;;;;;5039299;28;20049;-66
2021/12/14 12:24:52;;;;;;;36.85;18.63;;;9.00;94.30;;;;;;5050684;28;20037;-66
2021/12/14 12:27:29;;;;;;;29.38;18.42;;;9.10;94.30;;;;;;5051338;28;20065;-66
2021/12/14 12:30:08;;;;;;;35.67;19.50;;;9.10;94.30;;;;;;5051074;28;20064;-66
2021/12/14 12:32:33;;;;;;;40.95;18.77;;;9.10;94.30;;;;;;5048129;28;20041;-66
2021/12/14 12:35:00;;;;;;;35.95;20.10;;;9.10;94.30;;;;;;5047813;28;20047;-66
2021/12/14 12:37:40;;;;;;;39.25;19.60;;;9.10;94.50;;;;;;5049977;28;20575;-66
2021/12/14 12:40:10;;;;;;;33.95;18.52;;;9.10;94.40;;;;;;5026795;28;20100;-66
2021/12/14 12:42:36;;;;;;;45.47;21.33;;;9.20;94.40;;;;;;5050875;28;20036;-66
2021/12/14 12:45:04;;;;;;;43.28;20.15;;;9.10;94.40;;;;;;5048047;28;20532;-67
2021/12/14 12:47:29;;;;;;;43.85;19.20;;;9.10;94.40;;;;;;5046154;28;20045;-66
2021/12/14 12:49:57;;;;;;;31.77;18.02;;;9.10;94.40;;;;;;5050657;28;20041;-67
2021/12/14 12:52:30;;;;;;;31.05;17.52;;;9.20;94.30;;;;;;5051073;28;20132;-67
2021/12/14 12:55:01;;;;;;;39.67;17.73;;;9.20;94.30;;;;;;5049355;28;20535;-66
2021/12/14 12:57:53;;;;;;;36.55;18.20;;;9.20;94.30;;;;;;5047915;28;20128;-66
2021/12/14 13:00:28;;;;;;;33.27;16.50;;;9.20;94.30;;;;;;5043230;28;20157;-66
2021/12/14 13:03:08;;;;;;;30.77;15.75;;;9.20;94.40;;;;;;5050956;28;20810;-66
2021/12/14 13:05:42;;;;;;;27.25;14.63;;;9.30;94.40;;;;;;5050767;28;20095;-67
2021/12/14 13:08:33;;;;;;;24.10;14.35;;;9.30;94.40;;;;;;5049652;28;20045;-66
2021/12/14 13:11:16;;;;;;;22.80;14.35;;;9.30;94.30;;;;;;5048819;28;20037;-66
2021/12/14 13:13:45;;;;;;;25.77;15.43;;;9.30;94.40;;;;;;5049532;28;20041;-66
2021/12/14 13:16:20;;;;;;;32.63;17.08;;;9.40;94.30;;;;;;5048476;28;20072;-66
2021/12/14 13:18:53;;;;;;;30.55;17.45;;;9.40;94.30;;;;;;5048864;28;20498;-66
2021/12/14 13:21:32;;;;;;;34.55;19.15;;;9.40;94.20;;;;;;5047934;28;20049;-66
2021/12/14 13:24:07;;;;;;;36.08;19.33;;;9.50;94.20;;;;;;5047193;28;20406;-67
2021/12/14 13:26:44;;;;;;;24.33;15.85;;;9.40;94.20;;;;;;5049485;28;20044;-67
2021/12/14 13:29:12;;;;;;;26.27;16.95;;;9.40;94.00;;;;;;5048083;28;20045;-67
2021/12/14 13:31:48;;;;;;;28.30;17.50;;;9.40;94.10;;;;;;5047718;28;20041;-66
2021/12/14 13:34:27;;;;;;;29.40;16.58;;;9.40;94.10;;;;;;5049180;28;20124;-66
2021/12/14 13:36:54;;;;;;;22.92;15.70;;;9.40;94.00;;;;;;5047757;28;20064;-66
2021/12/14 13:39:21;;;;;;;23.50;15.02;;;9.40;93.90;;;;;;5049188;28;20064;-66